Indian River, New York
Current Conditions -  °F | °C
As of 7:58 AM on Tuesday 21 Oct 2014 (Local Time) from KGTB Reporting Station
Overcast Overcast  
Wind Chill: 41°   Ceiling: 5000
Heat Index: 46°   Visibility: 10mi
Dew Point: 43°   Wind: 13mph
Humidity: 87%   Direction: 140°SE
Pressure: 29.85"   Gusts: NA
Location:  43.9554°N, 75.2819°W
Report Text: KGTB 211158Z AUTO 14011KT 10SM OVC050 08/06 A2985 RMK AO2 SLP111 60002 70003 53007
Loading
Personal Weather Stations






























Interactive Weather Map
Tropical Storm Tracking
New forecast layout! Learn more

10-Day Weather Forecast

Advertisements
Track Severe Weather on mobile